VCP9AK SCJO-SCBA
Flight info
| Callsign | VCP9AK |
|---|---|
| Flight time | 0h 54m |
| Altitude | 39000 |
| Route | KIKOP UV200 MON UL670 UDOVI |
| Aircraft | B738/M-SDE2E3FGHIRWXY/LB1 |
Departure
| Time | 2026-04-15 13:45 |
|---|---|
| Airport | Cañal Bajo Carlos Hott Siebert Airport (SCJO) |
Arrival
| Time | 2026-04-15 14:39 |
|---|---|
| Airport | Balmaceda Airport (SCBA) |
| Time | Latitude | Longitude | Altitude | Speed | Heading |
|---|---|---|---|---|---|
| 2026-04-15 13:19 | -40.60489 | -73.06145 | 201 ft | 0 kts | 65° |
| 2026-04-15 13:36 | -40.60495 | -73.06162 | 201 ft | 2 kts | 65° |
| 2026-04-15 13:36 | -40.60502 | -73.06180 | 201 ft | 2 kts | 65° |
| 2026-04-15 13:36 | -40.60507 | -73.06195 | 200 ft | 1 kts | 83° |
| 2026-04-15 13:37 | -40.60504 | -73.06207 | 200 ft | 1 kts | 144° |
| 2026-04-15 13:37 | -40.60491 | -73.06213 | 200 ft | 2 kts | 160° |
| 2026-04-15 13:37 | -40.60483 | -73.06218 | 200 ft | 0 kts | 152° |
| 2026-04-15 13:40 | -40.60486 | -73.06216 | 200 ft | 2 kts | 152° |
| 2026-04-15 13:41 | -40.60539 | -73.06184 | 200 ft | 10 kts | 155° |
| 2026-04-15 13:41 | -40.60617 | -73.06163 | 199 ft | 12 kts | 185° |
| 2026-04-15 13:41 | -40.60710 | -73.06175 | 198 ft | 14 kts | 185° |
| 2026-04-15 13:41 | -40.60812 | -73.06192 | 198 ft | 14 kts | 186° |
| 2026-04-15 13:42 | -40.60920 | -73.06183 | 197 ft | 18 kts | 161° |
| 2026-04-15 13:42 | -40.61061 | -73.06104 | 199 ft | 24 kts | 155° |
| 2026-04-15 13:42 | -40.61228 | -73.06004 | 201 ft | 27 kts | 155° |
| 2026-04-15 13:42 | -40.61397 | -73.05901 | 199 ft | 25 kts | 155° |
| 2026-04-15 13:43 | -40.61565 | -73.05800 | 196 ft | 27 kts | 155° |
| 2026-04-15 13:43 | -40.61714 | -73.05711 | 192 ft | 15 kts | 162° |
| 2026-04-15 13:43 | -40.61797 | -73.05705 | 189 ft | 8 kts | 173° |
| 2026-04-15 13:43 | -40.61812 | -73.05659 | 188 ft | 5 kts | 33° |
| 2026-04-15 13:44 | -40.61773 | -73.05675 | 190 ft | 8 kts | 334° |
| 2026-04-15 13:44 | -40.61567 | -73.05799 | 196 ft | 71 kts | 335° |
| 2026-04-15 13:44 | -40.60877 | -73.06215 | 198 ft | 144 kts | 335° |
| 2026-04-15 13:44 | -40.59885 | -73.06818 | 755 ft | 159 kts | 335° |
| 2026-04-15 13:45 | -40.58984 | -73.07552 | 1659 ft | 159 kts | 314° |
| 2026-04-15 13:45 | -40.58472 | -73.08843 | 2275 ft | 169 kts | 287° |
| 2026-04-15 13:45 | -40.58398 | -73.10452 | 2746 ft | 189 kts | 265° |
| 2026-04-15 13:47 | -40.68822 | -73.12653 | 6649 ft | 292 kts | 174° |
| 2026-04-15 13:47 | -40.70838 | -73.12382 | 7396 ft | 297 kts | 174° |
| 2026-04-15 13:47 | -40.72914 | -73.12102 | 8192 ft | 302 kts | 173° |
| 2026-04-15 13:48 | -40.75010 | -73.11807 | 9045 ft | 305 kts | 173° |
| 2026-04-15 13:48 | -40.77126 | -73.11504 | 9895 ft | 308 kts | 173° |
| 2026-04-15 13:48 | -40.79262 | -73.11193 | 10622 ft | 317 kts | 173° |
| 2026-04-15 13:48 | -40.81507 | -73.10865 | 11178 ft | 332 kts | 173° |
| 2026-04-15 13:49 | -40.83859 | -73.10520 | 11700 ft | 348 kts | 173° |
| 2026-04-15 13:49 | -40.86313 | -73.10159 | 12192 ft | 365 kts | 173° |
| 2026-04-15 13:49 | -40.88878 | -73.09783 | 12893 ft | 375 kts | 173° |
| 2026-04-15 13:49 | -40.91480 | -73.09403 | 13750 ft | 379 kts | 173° |
| 2026-04-15 13:50 | -40.94105 | -73.09134 | 14621 ft | 383 kts | 177° |
| 2026-04-15 13:50 | -40.96801 | -73.09034 | 15514 ft | 387 kts | 180° |
| 2026-04-15 13:50 | -40.99483 | -73.09036 | 16315 ft | 393 kts | 181° |
| 2026-04-15 13:50 | -41.02252 | -73.09078 | 17155 ft | 397 kts | 181° |
| 2026-04-15 13:51 | -41.04991 | -73.09122 | 17960 ft | 401 kts | 181° |
| 2026-04-15 13:51 | -41.07819 | -73.09158 | 18743 ft | 406 kts | 181° |
| 2026-04-15 13:51 | -41.10666 | -73.09180 | 19553 ft | 410 kts | 181° |
| 2026-04-15 13:51 | -41.13493 | -73.09193 | 20302 ft | 415 kts | 181° |
| 2026-04-15 13:52 | -41.16419 | -73.09198 | 21056 ft | 419 kts | 182° |
| 2026-04-15 13:52 | -41.19326 | -73.09200 | 21794 ft | 422 kts | 182° |
| 2026-04-15 13:52 | -41.22284 | -73.09201 | 22471 ft | 427 kts | 182° |
| 2026-04-15 13:52 | -41.25269 | -73.09200 | 23138 ft | 431 kts | 182° |
| 2026-04-15 13:53 | -41.28242 | -73.09200 | 23770 ft | 435 kts | 182° |
| 2026-04-15 13:53 | -41.31307 | -73.09201 | 24371 ft | 440 kts | 182° |
| 2026-04-15 13:53 | -41.34340 | -73.09202 | 25019 ft | 442 kts | 182° |
| 2026-04-15 13:53 | -41.37424 | -73.09202 | 25625 ft | 446 kts | 182° |
| 2026-04-15 13:54 | -41.40559 | -73.09139 | 26195 ft | 451 kts | 180° |
| 2026-04-15 13:54 | -41.43687 | -73.08810 | 26757 ft | 457 kts | 175° |
| 2026-04-15 13:54 | -41.46851 | -73.08191 | 27312 ft | 462 kts | 172° |
| 2026-04-15 13:54 | -41.50024 | -73.07398 | 27897 ft | 465 kts | 171° |
| 2026-04-15 13:55 | -41.53205 | -73.06515 | 28391 ft | 470 kts | 170° |
| 2026-04-15 13:55 | -41.56396 | -73.05587 | 28916 ft | 474 kts | 169° |
| 2026-04-15 13:55 | -41.59656 | -73.04626 | 29417 ft | 478 kts | 170° |
| 2026-04-15 13:55 | -41.62945 | -73.03655 | 29913 ft | 481 kts | 170° |
| 2026-04-15 13:56 | -41.66202 | -73.02699 | 30362 ft | 486 kts | 170° |
| 2026-04-15 13:56 | -41.69500 | -73.01739 | 30991 ft | 485 kts | 170° |
| 2026-04-15 13:56 | -41.72818 | -73.00778 | 31801 ft | 481 kts | 170° |
| 2026-04-15 13:56 | -41.76045 | -72.99847 | 32456 ft | 479 kts | 170° |
| 2026-04-15 13:57 | -41.79335 | -72.98903 | 33028 ft | 479 kts | 171° |
| 2026-04-15 13:57 | -41.82589 | -72.97972 | 33610 ft | 478 kts | 171° |
| 2026-04-15 13:57 | -41.85856 | -72.97038 | 34238 ft | 477 kts | 171° |
| 2026-04-15 13:57 | -41.89111 | -72.96107 | 34898 ft | 475 kts | 171° |
| 2026-04-15 13:58 | -41.92325 | -72.95189 | 35471 ft | 474 kts | 171° |
| 2026-04-15 13:58 | -41.95558 | -72.94264 | 36045 ft | 472 kts | 171° |
| 2026-04-15 13:58 | -41.98762 | -72.93347 | 36653 ft | 470 kts | 171° |
| 2026-04-15 13:58 | -42.01934 | -72.92439 | 37135 ft | 471 kts | 172° |
| 2026-04-15 13:59 | -42.05143 | -72.91519 | 37591 ft | 471 kts | 172° |
| 2026-04-15 13:59 | -42.08336 | -72.90603 | 38044 ft | 471 kts | 172° |
| 2026-04-15 13:59 | -42.11538 | -72.89683 | 38552 ft | 469 kts | 172° |
| 2026-04-15 13:59 | -42.14753 | -72.88758 | 38915 ft | 470 kts | 172° |
| 2026-04-15 14:00 | -42.17926 | -72.87846 | 39084 ft | 473 kts | 172° |
| 2026-04-15 14:00 | -42.21159 | -72.86916 | 39076 ft | 473 kts | 172° |
| 2026-04-15 14:00 | -42.27570 | -72.85064 | 39078 ft | 471 kts | 172° |
| 2026-04-15 14:01 | -42.37173 | -72.82282 | 39077 ft | 472 kts | 172° |
| 2026-04-15 14:02 | -42.43630 | -72.80397 | 39075 ft | 472 kts | 172° |
| 2026-04-15 14:02 | -42.50015 | -72.78480 | 39075 ft | 473 kts | 172° |
| 2026-04-15 14:03 | -42.56433 | -72.76531 | 39071 ft | 473 kts | 172° |
| 2026-04-15 14:03 | -42.62889 | -72.74567 | 39072 ft | 475 kts | 172° |
| 2026-04-15 14:04 | -42.69311 | -72.72614 | 39069 ft | 473 kts | 172° |
| 2026-04-15 14:04 | -42.75709 | -72.70667 | 39064 ft | 474 kts | 172° |
| 2026-04-15 14:05 | -42.82150 | -72.68705 | 39065 ft | 474 kts | 172° |
| 2026-04-15 14:05 | -42.88598 | -72.66737 | 39060 ft | 475 kts | 172° |
| 2026-04-15 14:06 | -42.95058 | -72.64761 | 39060 ft | 475 kts | 172° |
| 2026-04-15 14:06 | -43.01524 | -72.62780 | 39061 ft | 476 kts | 172° |
| 2026-04-15 14:07 | -43.07966 | -72.60800 | 39054 ft | 475 kts | 172° |
| 2026-04-15 14:07 | -43.14387 | -72.58822 | 39052 ft | 474 kts | 172° |
| 2026-04-15 14:08 | -43.20832 | -72.56834 | 39045 ft | 476 kts | 172° |
| 2026-04-15 14:08 | -43.27299 | -72.54836 | 39038 ft | 476 kts | 172° |
| 2026-04-15 14:09 | -43.33748 | -72.52836 | 39033 ft | 475 kts | 172° |
| 2026-04-15 14:09 | -43.40157 | -72.50846 | 39041 ft | 476 kts | 172° |
| 2026-04-15 14:10 | -43.46634 | -72.48833 | 39051 ft | 476 kts | 172° |
| 2026-04-15 14:10 | -43.53070 | -72.46825 | 39058 ft | 476 kts | 172° |
| 2026-04-15 14:11 | -43.59489 | -72.44815 | 39051 ft | 476 kts | 172° |
| 2026-04-15 14:11 | -43.65948 | -72.42789 | 39043 ft | 474 kts | 172° |
| 2026-04-15 14:12 | -43.72382 | -72.40766 | 39038 ft | 475 kts | 172° |
| 2026-04-15 14:12 | -43.78857 | -72.38726 | 39030 ft | 475 kts | 173° |
| 2026-04-15 14:13 | -43.85290 | -72.36695 | 39044 ft | 476 kts | 173° |
| 2026-04-15 14:13 | -43.91728 | -72.34660 | 39054 ft | 477 kts | 172° |
| 2026-04-15 14:14 | -43.98193 | -72.32607 | 39067 ft | 476 kts | 172° |
| 2026-04-15 14:14 | -44.04627 | -72.30561 | 39069 ft | 476 kts | 172° |
| 2026-04-15 14:15 | -44.11105 | -72.28499 | 39052 ft | 476 kts | 172° |
| 2026-04-15 14:15 | -44.17529 | -72.26447 | 38908 ft | 474 kts | 172° |
| 2026-04-15 14:15 | -44.20708 | -72.25428 | 38527 ft | 467 kts | 172° |
| 2026-04-15 14:16 | -44.23873 | -72.24410 | 38036 ft | 463 kts | 172° |
| 2026-04-15 14:16 | -44.27002 | -72.23405 | 37453 ft | 463 kts | 172° |
| 2026-04-15 14:16 | -44.30150 | -72.22397 | 36840 ft | 463 kts | 172° |
| 2026-04-15 14:16 | -44.33293 | -72.21388 | 36211 ft | 461 kts | 172° |
| 2026-04-15 14:17 | -44.36387 | -72.20396 | 35570 ft | 461 kts | 172° |
| 2026-04-15 14:17 | -44.39536 | -72.19383 | 34874 ft | 461 kts | 171° |
| 2026-04-15 14:17 | -44.42662 | -72.18378 | 34157 ft | 461 kts | 172° |
| 2026-04-15 14:17 | -44.45742 | -72.17384 | 33482 ft | 461 kts | 171° |
| 2026-04-15 14:18 | -44.48871 | -72.16375 | 32764 ft | 462 kts | 171° |
| 2026-04-15 14:18 | -44.51990 | -72.15366 | 32196 ft | 461 kts | 171° |
| 2026-04-15 14:18 | -44.55189 | -72.14334 | 31642 ft | 470 kts | 171° |
| 2026-04-15 14:18 | -44.58353 | -72.13313 | 31065 ft | 469 kts | 171° |
| 2026-04-15 14:19 | -44.61530 | -72.12281 | 30479 ft | 465 kts | 171° |
| 2026-04-15 14:19 | -44.64663 | -72.11259 | 29901 ft | 460 kts | 171° |
| 2026-04-15 14:19 | -44.67765 | -72.10245 | 29341 ft | 456 kts | 171° |
| 2026-04-15 14:19 | -44.70824 | -72.09246 | 28776 ft | 452 kts | 171° |
| 2026-04-15 14:20 | -44.73770 | -72.08283 | 28222 ft | 448 kts | 171° |
| 2026-04-15 14:20 | -44.76798 | -72.07295 | 27660 ft | 444 kts | 171° |
| 2026-04-15 14:20 | -44.79810 | -72.06310 | 27089 ft | 440 kts | 171° |
| 2026-04-15 14:20 | -44.82758 | -72.05347 | 26531 ft | 436 kts | 171° |
| 2026-04-15 14:21 | -44.85707 | -72.04383 | 25975 ft | 433 kts | 171° |
| 2026-04-15 14:21 | -44.88638 | -72.03423 | 25414 ft | 429 kts | 171° |
| 2026-04-15 14:21 | -44.91505 | -72.02483 | 24864 ft | 425 kts | 171° |
| 2026-04-15 14:21 | -44.94387 | -72.01537 | 24328 ft | 421 kts | 171° |
| 2026-04-15 14:22 | -44.97211 | -72.00608 | 23793 ft | 418 kts | 170° |
| 2026-04-15 14:22 | -45.00042 | -71.99677 | 23254 ft | 415 kts | 170° |
| 2026-04-15 14:22 | -45.02817 | -71.98763 | 22724 ft | 412 kts | 170° |
| 2026-04-15 14:22 | -45.05613 | -71.97842 | 22186 ft | 408 kts | 170° |
| 2026-04-15 14:23 | -45.08359 | -71.96937 | 21654 ft | 406 kts | 170° |
| 2026-04-15 14:23 | -45.11087 | -71.96037 | 21125 ft | 402 kts | 170° |
| 2026-04-15 14:23 | -45.13781 | -71.95148 | 20607 ft | 399 kts | 169° |
| 2026-04-15 14:23 | -45.16489 | -71.94252 | 20075 ft | 396 kts | 169° |
| 2026-04-15 14:24 | -45.19154 | -71.93370 | 19555 ft | 392 kts | 169° |
| 2026-04-15 14:24 | -45.21777 | -71.92500 | 19037 ft | 389 kts | 169° |
| 2026-04-15 14:24 | -45.24413 | -71.91625 | 18521 ft | 385 kts | 169° |
| 2026-04-15 14:24 | -45.26982 | -71.90777 | 18012 ft | 382 kts | 169° |
| 2026-04-15 14:25 | -45.29588 | -71.89959 | 17506 ft | 380 kts | 171° |
| 2026-04-15 14:25 | -45.32165 | -71.89188 | 16992 ft | 385 kts | 171° |
| 2026-04-15 14:25 | -45.34781 | -71.88418 | 16479 ft | 381 kts | 171° |
| 2026-04-15 14:25 | -45.37356 | -71.87657 | 15980 ft | 377 kts | 171° |
| 2026-04-15 14:26 | -45.39932 | -71.86892 | 15409 ft | 376 kts | 171° |
| 2026-04-15 14:26 | -45.42475 | -71.86131 | 14884 ft | 373 kts | 171° |
| 2026-04-15 14:26 | -45.44998 | -71.85371 | 14374 ft | 369 kts | 171° |
| 2026-04-15 14:26 | -45.47487 | -71.84619 | 13881 ft | 366 kts | 171° |
| 2026-04-15 14:27 | -45.49956 | -71.83871 | 13267 ft | 363 kts | 172° |
| 2026-04-15 14:27 | -45.52405 | -71.83128 | 12708 ft | 357 kts | 172° |
| 2026-04-15 14:27 | -45.54815 | -71.82397 | 12184 ft | 356 kts | 172° |
| 2026-04-15 14:27 | -45.57220 | -71.81667 | 11694 ft | 353 kts | 172° |
| 2026-04-15 14:28 | -45.59633 | -71.80934 | 11255 ft | 348 kts | 173° |
| 2026-04-15 14:28 | -45.61966 | -71.80223 | 11016 ft | 337 kts | 173° |
| 2026-04-15 14:28 | -45.64218 | -71.79515 | 10665 ft | 333 kts | 171° |
| 2026-04-15 14:28 | -45.66401 | -71.78448 | 10230 ft | 331 kts | 157° |
| 2026-04-15 14:29 | -45.68190 | -71.76447 | 9980 ft | 323 kts | 131° |
| 2026-04-15 14:29 | -45.69452 | -71.73910 | 9815 ft | 313 kts | 122° |
| 2026-04-15 14:29 | -45.70575 | -71.71210 | 9395 ft | 313 kts | 120° |
| 2026-04-15 14:29 | -45.71659 | -71.68568 | 9048 ft | 311 kts | 121° |
| 2026-04-15 14:30 | -45.72786 | -71.65937 | 8705 ft | 307 kts | 123° |
| 2026-04-15 14:30 | -45.73931 | -71.63373 | 8366 ft | 304 kts | 124° |
| 2026-04-15 14:30 | -45.75073 | -71.60870 | 8034 ft | 300 kts | 124° |
| 2026-04-15 14:30 | -45.76213 | -71.58388 | 7704 ft | 297 kts | 124° |
| 2026-04-15 14:31 | -45.77353 | -71.55906 | 7385 ft | 293 kts | 124° |
| 2026-04-15 14:31 | -45.78444 | -71.53523 | 7242 ft | 283 kts | 124° |
| 2026-04-15 14:31 | -45.79488 | -71.51237 | 7178 ft | 270 kts | 124° |
| 2026-04-15 14:31 | -45.80497 | -71.49021 | 7079 ft | 260 kts | 124° |
| 2026-04-15 14:32 | -45.81492 | -71.46858 | 6829 ft | 257 kts | 124° |
| 2026-04-15 14:32 | -45.82473 | -71.44740 | 6570 ft | 256 kts | 125° |
| 2026-04-15 14:32 | -45.83441 | -71.42653 | 6412 ft | 249 kts | 125° |
| 2026-04-15 14:32 | -45.84482 | -71.40733 | 6363 ft | 235 kts | 138° |
| 2026-04-15 14:33 | -45.85812 | -71.39576 | 6253 ft | 216 kts | 172° |
| 2026-04-15 14:33 | -45.87246 | -71.39557 | 6023 ft | 202 kts | 198° |
| 2026-04-15 14:33 | -45.88604 | -71.39970 | 5793 ft | 198 kts | 198° |
| 2026-04-15 14:33 | -45.89945 | -71.40312 | 5604 ft | 189 kts | 196° |
| 2026-04-15 14:34 | -45.91214 | -71.40605 | 5421 ft | 181 kts | 197° |
| 2026-04-15 14:34 | -45.92449 | -71.40913 | 5258 ft | 180 kts | 200° |
| 2026-04-15 14:34 | -45.93581 | -71.41567 | 4963 ft | 172 kts | 227° |
| 2026-04-15 14:34 | -45.94231 | -71.42868 | 4897 ft | 159 kts | 252° |
| 2026-04-15 14:35 | -45.94450 | -71.44409 | 4763 ft | 157 kts | 277° |
| 2026-04-15 14:35 | -45.94320 | -71.45960 | 4560 ft | 155 kts | 281° |
| 2026-04-15 14:35 | -45.94167 | -71.47491 | 4350 ft | 155 kts | 282° |
| 2026-04-15 14:35 | -45.94003 | -71.49049 | 4148 ft | 158 kts | 282° |
| 2026-04-15 14:36 | -45.93826 | -71.50599 | 3927 ft | 157 kts | 283° |
| 2026-04-15 14:36 | -45.93644 | -71.52136 | 3728 ft | 156 kts | 283° |
| 2026-04-15 14:36 | -45.93458 | -71.53669 | 3515 ft | 157 kts | 283° |
| 2026-04-15 14:36 | -45.93272 | -71.55203 | 3310 ft | 156 kts | 283° |
| 2026-04-15 14:37 | -45.93089 | -71.56711 | 3115 ft | 144 kts | 283° |
| 2026-04-15 14:37 | -45.92926 | -71.58053 | 2931 ft | 132 kts | 284° |
| 2026-04-15 14:37 | -45.92771 | -71.59315 | 2754 ft | 127 kts | 284° |
| 2026-04-15 14:37 | -45.92617 | -71.60568 | 2598 ft | 127 kts | 284° |
| 2026-04-15 14:38 | -45.92467 | -71.61799 | 2423 ft | 124 kts | 285° |
| 2026-04-15 14:38 | -45.92315 | -71.63032 | 2257 ft | 123 kts | 285° |
| 2026-04-15 14:38 | -45.92167 | -71.64231 | 2101 ft | 122 kts | 285° |
| 2026-04-15 14:38 | -45.92021 | -71.65427 | 1938 ft | 121 kts | 285° |
| 2026-04-15 14:39 | -45.91893 | -71.66608 | 1822 ft | 116 kts | 285° |
| 2026-04-15 14:39 | -45.91746 | -71.67735 | 1691 ft | 114 kts | 284° |
| 2026-04-15 14:39 | -45.91636 | -71.68632 | 1685 ft | 58 kts | 279° |
| 2026-04-15 14:39 | -45.91560 | -71.68948 | 1690 ft | 21 kts | 306° |
| 2026-04-15 14:40 | -45.91505 | -71.69044 | 1691 ft | 5 kts | 309° |
| 2026-04-15 14:40 | -45.91484 | -71.69083 | 1691 ft | 4 kts | 309° |
| 2026-04-15 14:40 | -45.91465 | -71.69115 | 1692 ft | 3 kts | 309° |
| 2026-04-15 14:40 | -45.91449 | -71.69143 | 1692 ft | 3 kts | 310° |
| 2026-04-15 14:41 | -45.91427 | -71.69182 | 1693 ft | 5 kts | 313° |
| 2026-04-15 14:41 | -45.91393 | -71.69200 | 1693 ft | 5 kts | 358° |
| 2026-04-15 14:41 | -45.91358 | -71.69222 | 1694 ft | 5 kts | 314° |
| 2026-04-15 14:41 | -45.91350 | -71.69238 | 1694 ft | 1 kts | 300° |
| 2026-04-15 14:42 | -45.91345 | -71.69250 | 1694 ft | 1 kts | 299° |
| 2026-04-15 14:42 | -45.91343 | -71.69256 | 1695 ft | 0 kts | 300° |